Boise Air Terminal,Gowen field Boise US
ICAO: KBOI
IATA: BOI
Category: Large
Scheduled Services: Yes

Elevation: 2871 ft
TransAlt. 18000 ft.

Airport Communications:
APP/DEP:119.6
ATIS:123.9
CLNC DEL:125.9
SALT LAKE CITY CNTR:128.05
GND:121.7
ANG OPS:29.87
ARNG OPS:41.5
RDO:122.2
TWR:118.1
UNICOM:122.95

KBOI Zoom In..

Runways:

(A) RW 10L length 10000 ft width 150 ft
---- / hdg 100

(B) RW 10R length 9763 ft width 150 ft
ILS 111.10 / hdg 100

(C) RW 28L length 9763 ft width 150 ft
---- / hdg 280

(D) RW 28R length 10000 ft width 150 ft
ILS 110.15 / hdg 280

Location; KBOI
Day. 20 / Time. 16.53 Zulu
* Altimeter: 29.91
* Temperature: 16° c. 60.8°f.
* Wind from: 340° Speed 05 kn.
Dewpoint: 13° c.
Visibility: 10 Statute Miles.
Clouds: Few 2800 ft.
Clouds: Broken 11000 ft.

KBOI 201653Z 34005KT 10SM FEW028 BKN110 16/13 A2991 RMK AO2 RAE35 SLP113 P0005 T01560133


Wind From 340°
Speed 05 kn.

 
 
jpsmedia.com for Web Design SOUNDCLOUD worldairports.se 2018   terms of use